Time;durP1;ratioP1;P1;durP2;ratioP2;P2;SDS_P1;SDS_P2;PMS_P1;PMS_P2;Temp;Humidity;BMP_temperature;BMP_pressure;BME280_temperature;BME280_humidity;BME280_pressure;Samples;Min_cycle;Max_cycle;Signal;HPM_P1;HPM_P2
2023/03/03 00:01:26;;;;;;;0.00;0.00;;;;;;;0.45;82.55;101444.59;6314988;22;20011;-74
2023/03/03 00:03:52;;;;;;;0.00;0.00;;;;;;;0.41;82.07;101438.75;6312008;22;20006;-75
2023/03/03 00:06:19;;;;;;;0.05;0.05;;;;;;;0.47;81.54;101448.81;6313343;22;20026;-74
2023/03/03 00:08:44;;;;;;;0.00;0.00;;;;;;;0.48;82.06;101445.13;6341213;22;20046;-73
2023/03/03 00:11:11;;;;;;;0.10;0.10;;;;;;;0.52;82.55;101450.97;6286417;22;19995;-75
2023/03/03 00:13:52;;;;;;;0.00;0.00;;;;;;;0.51;82.16;101451.97;6343025;22;20073;-75
2023/03/03 00:16:25;;;;;;;0.00;0.00;;;;;;;0.52;82.20;101451.81;6340570;22;20078;-74
2023/03/03 00:18:51;;;;;;;0.00;0.00;;;;;;;0.47;81.85;101448.81;6315777;22;20025;-76
2023/03/03 00:21:28;;;;;;;0.00;0.00;;;;;;;0.44;82.86;101457.25;6314418;22;20002;-76
2023/03/03 00:24:10;;;;;;;0.00;0.00;;;;;;;0.36;82.09;101445.66;6317130;22;20489;-76
2023/03/03 00:26:38;;;;;;;0.10;0.10;;;;;;;0.38;82.90;101452.56;6315357;22;20016;-75
2023/03/03 00:29:30;;;;;;;0.00;0.00;;;;;;;0.40;82.65;101453.22;6316488;22;20083;-76
2023/03/03 00:32:14;;;;;;;0.00;0.00;;;;;;;0.39;82.85;101442.63;6315342;22;20009;-76
2023/03/03 00:34:41;;;;;;;0.00;0.00;;;;;;;0.43;82.38;101441.25;6340762;22;20028;-76
2023/03/03 00:37:33;;;;;;;0.00;0.00;;;;;;;0.45;83.61;101444.59;6313270;22;20022;-76
2023/03/03 00:40:11;;;;;;;0.00;0.00;;;;;;;0.45;83.40;101440.09;6312950;22;20003;-76
2023/03/03 00:42:36;;;;;;;0.00;0.00;;;;;;;0.38;83.11;101432.88;6344473;22;19983;-76
2023/03/03 00:45:22;;;;;;;0.00;0.00;;;;;;;0.42;83.35;101440.41;6288679;22;20048;-76
2023/03/03 00:47:48;;;;;;;0.00;0.00;;;;;;;0.37;82.54;101448.19;6316198;22;20009;-75
2023/03/03 00:50:36;;;;;;;0.00;0.00;;;;;;;0.40;83.68;101437.06;6286768;22;19999;-76
2023/03/03 00:53:02;;;;;;;0.00;0.00;;;;;;;0.39;82.80;101439.94;6307080;22;20033;-76
2023/03/03 00:55:28;;;;;;;0.00;0.00;;;;;;;0.31;84.03;101432.75;6322303;22;19999;-77
2023/03/03 00:57:53;;;;;;;0.00;0.00;;;;;;;0.40;84.25;101442.44;6320954;22;19999;-76
2023/03/03 01:00:19;;;;;;;0.00;0.00;;;;;;;0.44;84.58;101441.09;6314751;22;20061;-77
2023/03/03 01:02:45;;;;;;;0.00;0.00;;;;;;;0.42;83.43;101435.03;6288268;22;20013;-75
2023/03/03 01:05:16;;;;;;;0.00;0.00;;;;;;;0.45;83.20;101450.00;6264198;22;20010;-76
2023/03/03 01:07:41;;;;;;;0.10;0.10;;;;;;;0.30;83.33;101447.19;6311897;22;20007;-75
2023/03/03 01:10:08;;;;;;;0.00;0.00;;;;;;;0.26;84.62;101453.94;6314380;22;20048;-75
2023/03/03 01:12:33;;;;;;;0.00;0.00;;;;;;;0.21;84.12;101448.25;6337677;22;20037;-75
2023/03/03 01:14:59;;;;;;;0.00;0.00;;;;;;;0.07;84.04;101442.53;6264890;22;19999;-75
2023/03/03 01:17:24;;;;;;;0.10;0.10;;;;;;;0.09;84.97;101450.44;6311712;22;20014;-76
2023/03/03 01:19:50;;;;;;;0.00;0.00;;;;;;;0.04;83.59;101450.94;6288677;22;19999;-75
2023/03/03 01:22:15;;;;;;;0.00;0.00;;;;;;;-0.02;84.86;101454.31;6288204;22;20003;-74
2023/03/03 01:24:41;;;;;;;0.00;0.00;;;;;;;-0.13;84.97;101443.91;6258840;22;20006;-76
2023/03/03 01:27:11;;;;;;;0.10;0.10;;;;;;;-0.05;84.59;101439.38;6288266;22;20034;-75
2023/03/03 01:29:37;;;;;;;0.00;0.00;;;;;;;0.19;84.69;101467.25;6311731;22;20061;-74
2023/03/03 01:32:02;;;;;;;0.10;0.10;;;;;;;0.33;83.97;101463.00;6312992;22;20389;-74
2023/03/03 01:34:28;;;;;;;0.10;0.10;;;;;;;0.46;83.60;101474.03;6311077;22;19998;-74
2023/03/03 01:36:53;;;;;;;0.00;0.00;;;;;;;0.52;83.21;101473.34;6287441;22;20023;-75
2023/03/03 01:39:18;;;;;;;0.00;0.00;;;;;;;0.63;83.32;101479.38;6343226;22;20350;-75
2023/03/03 01:41:44;;;;;;;0.00;0.00;;;;;;;0.65;83.61;101469.28;6339761;22;20059;-77
2023/03/03 01:44:14;;;;;;;0.00;0.00;;;;;;;0.81;83.02;101469.19;6315924;22;20083;-75
2023/03/03 01:47:11;;;;;;;0.00;0.00;;;;;;;0.95;82.30;101472.13;6316792;22;20007;-73
2023/03/03 01:49:55;;;;;;;0.00;0.00;;;;;;;1.02;82.65;101473.13;6317523;22;20060;-75
2023/03/03 01:52:20;;;;;;;0.10;0.10;;;;;;;1.27;81.51;101486.44;6312854;22;20029;-76
2023/03/03 01:55:11;;;;;;;0.00;0.00;;;;;;;1.29;81.63;101473.63;6314830;22;20007;-74
2023/03/03 01:57:43;;;;;;;0.00;0.00;;;;;;;1.44;80.78;101471.84;6316860;22;20006;-75
2023/03/03 02:00:09;;;;;;;0.00;0.00;;;;;;;1.65;81.42;101484.66;6343356;22;19994;-75
2023/03/03 02:02:36;;;;;;;0.00;0.00;;;;;;;1.73;80.82;101486.44;6312905;22;20052;-75
2023/03/03 02:05:01;;;;;;;0.00;0.00;;;;;;;1.80;80.38;101490.09;6315829;22;20009;-75
2023/03/03 02:07:30;;;;;;;0.00;0.00;;;;;;;1.91;80.31;101497.75;6289521;22;20018;-75
2023/03/03 02:10:14;;;;;;;0.00;0.00;;;;;;;1.88;79.46;101483.78;6342799;22;20041;-76
2023/03/03 02:12:48;;;;;;;0.10;0.10;;;;;;;2.07;79.60;101488.66;6342330;22;20006;-74
2023/03/03 02:15:28;;;;;;;0.00;0.00;;;;;;;2.26;79.04;101498.09;6351692;22;20006;-75
2023/03/03 02:17:56;;;;;;;0.00;0.00;;;;;;;2.36;78.93;101480.78;6317717;22;20013;-75
2023/03/03 02:20:45;;;;;;;0.00;0.00;;;;;;;2.49;78.63;101483.66;6347357;22;20328;-75
2023/03/03 02:23:27;;;;;;;0.03;0.03;;;;;;;2.54;78.19;101489.34;6308368;22;20007;-75
2023/03/03 02:25:56;;;;;;;0.10;0.10;;;;;;;2.56;78.44;101487.28;6339572;22;20037;-75
2023/03/03 02:28:25;;;;;;;0.00;0.00;;;;;;;2.54;78.08;101493.91;6315676;22;20007;-77
2023/03/03 02:30:57;;;;;;;0.00;0.00;;;;;;;2.43;77.81;101470.91;6343112;22;20003;-76
2023/03/03 02:33:23;;;;;;;0.00;0.00;;;;;;;2.59;78.02;101476.09;6315452;22;20026;-76
2023/03/03 02:35:50;;;;;;;0.08;0.08;;;;;;;2.80;78.11;101477.19;6289004;22;20494;-75
2023/03/03 02:38:41;;;;;;;0.00;0.00;;;;;;;3.27;77.74;101480.44;6288232;22;19999;-74
2023/03/03 02:41:37;;;;;;;0.00;0.00;;;;;;;3.49;77.04;101489.44;6315746;22;20002;-74
2023/03/03 02:44:15;;;;;;;0.10;0.10;;;;;;;3.44;76.23;101489.16;6315825;22;20034;-75
2023/03/03 02:46:46;;;;;;;0.03;0.03;;;;;;;3.32;76.59;101486.94;6316657;22;19990;-77
2023/03/03 02:49:14;;;;;;;0.00;0.00;;;;;;;3.34;77.17;101472.41;6342651;22;20011;-75
2023/03/03 02:51:40;;;;;;;0.00;0.00;;;;;;;3.62;76.43;101503.06;6315329;22;20007;-75
2023/03/03 02:54:15;;;;;;;0.00;0.00;;;;;;;3.58;76.51;101496.38;6316715;22;20032;-74
2023/03/03 02:56:41;;;;;;;0.00;0.00;;;;;;;3.42;76.35;101496.63;6344131;22;20408;-76
2023/03/03 02:59:07;;;;;;;0.00;0.00;;;;;;;3.29;75.85;101491.91;6344189;22;20006;-74
2023/03/03 03:01:35;;;;;;;0.00;0.00;;;;;;;3.25;76.01;101496.84;6316245;22;19999;-75
2023/03/03 03:04:12;;;;;;;0.00;0.00;;;;;;;3.20;76.24;101491.19;6292077;22;20014;-75
2023/03/03 03:06:37;;;;;;;0.00;0.00;;;;;;;3.31;76.08;101512.34;6341327;22;19999;-75
2023/03/03 03:09:06;;;;;;;0.00;0.00;;;;;;;3.25;76.30;101496.84;6315068;22;20052;-75
2023/03/03 03:11:37;;;;;;;0.00;0.00;;;;;;;3.39;76.20;101497.00;6344143;22;20435;-75
2023/03/03 03:14:04;;;;;;;0.00;0.00;;;;;;;3.48;75.87;101506.69;6343520;22;19998;-75
2023/03/03 03:16:39;;;;;;;0.00;0.00;;;;;;;3.51;76.24;101503.59;6330381;22;20003;-75
2023/03/03 03:19:05;;;;;;;0.00;0.00;;;;;;;3.55;75.53;101513.00;6342904;22;20003;-74
2023/03/03 03:21:31;;;;;;;0.00;0.00;;;;;;;3.53;75.68;101509.63;6291047;22;20064;-75
2023/03/03 03:24:03;;;;;;;0.00;0.00;;;;;;;3.55;75.54;101512.13;6314491;22;20591;-75
2023/03/03 03:26:28;;;;;;;0.00;0.00;;;;;;;3.50;75.20;101499.19;6321493;22;20006;-75
2023/03/03 03:28:54;;;;;;;0.00;0.00;;;;;;;3.53;75.27;101511.50;6288890;22;20098;-75
2023/03/03 03:31:20;;;;;;;0.00;0.00;;;;;;;3.47;75.20;101499.59;6290088;22;20011;-74
2023/03/03 03:33:45;;;;;;;0.00;0.00;;;;;;;3.39;75.13;101488.88;6323049;22;20013;-75
2023/03/03 03:36:11;;;;;;;0.00;0.00;;;;;;;3.50;75.24;101499.19;6291480;22;20034;-74
2023/03/03 03:38:37;;;;;;;0.00;0.00;;;;;;;3.42;75.47;101491.22;6314336;22;20003;-75
2023/03/03 03:41:04;;;;;;;0.00;0.00;;;;;;;3.55;75.03;101502.16;6310921;22;20016;-76
2023/03/03 03:43:29;;;;;;;0.00;0.00;;;;;;;3.52;75.20;101485.47;6317080;22;20013;-75
2023/03/03 03:45:55;;;;;;;0.00;0.00;;;;;;;3.56;75.09;101495.72;6287097;22;20007;-74
2023/03/03 03:48:20;;;;;;;0.00;0.00;;;;;;;3.67;74.67;101500.59;6289699;22;20041;-73
2023/03/03 03:50:47;;;;;;;0.00;0.00;;;;;;;3.72;75.01;101496.50;6290185;22;20007;-74
2023/03/03 03:53:12;;;;;;;0.00;0.00;;;;;;;3.77;74.85;101494.88;6311303;22;19999;-72
2023/03/03 03:55:38;;;;;;;0.10;0.10;;;;;;;3.85;74.80;101493.91;6290268;22;20021;-75
2023/03/03 03:58:03;;;;;;;0.00;0.00;;;;;;;3.91;74.68;101478.75;6319343;22;20013;-74
2023/03/03 04:00:29;;;;;;;0.00;0.00;;;;;;;4.08;74.39;101484.72;6317626;22;20003;-74
2023/03/03 04:02:55;;;;;;;0.00;0.00;;;;;;;4.23;73.68;101482.72;6290700;22;20007;-75
2023/03/03 04:05:20;;;;;;;0.00;0.00;;;;;;;4.43;74.01;101476.63;6260565;22;19999;-75
2023/03/03 04:07:45;;;;;;;0.00;0.00;;;;;;;4.51;72.70;101489.97;6288207;22;19995;-75
2023/03/03 04:10:11;;;;;;;0.00;0.00;;;;;;;4.51;72.25;101485.44;6308220;22;20035;-74
2023/03/03 04:12:40;;;;;;;0.00;0.00;;;;;;;4.64;72.71;101486.50;6288232;22;20401;-73
2023/03/03 04:15:07;;;;;;;0.00;0.00;;;;;;;4.48;72.64;101463.31;6337841;22;20015;-73
2023/03/03 04:17:33;;;;;;;0.00;0.00;;;;;;;4.61;71.91;101482.31;6312217;22;20007;-74
2023/03/03 04:19:59;;;;;;;0.00;0.00;;;;;;;4.62;71.71;101486.72;6311564;22;20071;-75
2023/03/03 04:22:25;;;;;;;0.00;0.00;;;;;;;4.67;71.76;101481.56;6341367;22;20006;-73
2023/03/03 04:24:50;;;;;;;0.00;0.00;;;;;;;4.69;71.91;101486.75;6313961;22;20003;-73
2023/03/03 04:27:16;;;;;;;0.00;0.00;;;;;;;4.70;71.20;101483.00;6286075;22;20362;-75
2023/03/03 04:29:42;;;;;;;0.00;0.00;;;;;;;4.64;70.75;101484.63;6287086;22;20003;-74
2023/03/03 04:32:07;;;;;;;0.00;0.00;;;;;;;4.62;71.47;101489.44;6285573;22;20363;-73
2023/03/03 04:34:33;;;;;;;0.00;0.00;;;;;;;4.65;71.29;101480.91;6315666;22;20018;-75
2023/03/03 04:36:58;;;;;;;0.10;0.10;;;;;;;4.76;71.16;101482.22;6269778;22;20019;-74
2023/03/03 04:39:24;;;;;;;0.00;0.00;;;;;;;4.76;70.92;101481.34;6232714;22;20073;-76
2023/03/03 04:41:49;;;;;;;0.00;0.00;;;;;;;4.74;70.49;101486.16;6259833;22;20495;-75
2023/03/03 04:44:15;;;;;;;0.00;0.00;;;;;;;4.64;70.77;101473.78;6231505;22;19999;-75
2023/03/03 04:46:43;;;;;;;0.10;0.10;;;;;;;4.83;70.45;101485.78;6285861;22;20007;-75
2023/03/03 04:49:09;;;;;;;0.00;0.00;;;;;;;4.79;69.96;101481.81;6280667;22;20003;-75
2023/03/03 04:51:34;;;;;;;0.00;0.00;;;;;;;4.76;69.88;101482.22;6286717;22;20071;-75
2023/03/03 04:54:00;;;;;;;0.00;0.00;;;;;;;4.71;69.78;101484.69;6289546;22;19999;-75
2023/03/03 04:56:28;;;;;;;0.00;0.00;;;;;;;4.69;70.13;101493.00;6235088;22;20007;-76
2023/03/03 04:58:53;;;;;;;0.00;0.00;;;;;;;4.68;69.88;101496.75;6284936;22;20377;-75
2023/03/03 05:01:19;;;;;;;0.00;0.00;;;;;;;4.65;69.74;101489.03;6258088;22;20007;-75
2023/03/03 05:03:45;;;;;;;0.00;0.00;;;;;;;4.61;70.01;101487.75;6260772;22;20018;-76
2023/03/03 05:06:10;;;;;;;0.00;0.00;;;;;;;4.57;70.41;101494.63;6233318;22;20012;-74
2023/03/03 05:08:36;;;;;;;0.00;0.00;;;;;;;4.61;70.45;101490.47;6255894;22;20054;-76
2023/03/03 05:11:02;;;;;;;0.00;0.00;;;;;;;4.59;69.53;101487.13;6284118;22;19999;-74
2023/03/03 05:13:28;;;;;;;0.00;0.00;;;;;;;4.69;70.13;101493.00;6254667;22;20011;-74
2023/03/03 05:15:55;;;;;;;0.00;0.00;;;;;;;4.66;69.58;101493.41;6283855;22;19999;-75
2023/03/03 05:18:22;;;;;;;0.00;0.00;;;;;;;4.67;69.88;101497.81;6255531;22;20381;-74
2023/03/03 05:20:51;;;;;;;0.00;0.00;;;;;;;4.60;70.06;101487.94;6256756;22;20001;-74
2023/03/03 05:23:17;;;;;;;0.00;0.00;;;;;;;4.57;70.00;101493.78;6309351;22;20003;-75
2023/03/03 05:25:43;;;;;;;0.10;0.10;;;;;;;4.60;70.03;101498.78;6307993;22;20010;-74
2023/03/03 05:28:10;;;;;;;0.00;0.00;;;;;;;4.58;69.47;101501.69;6283110;22;20007;-75
2023/03/03 05:30:38;;;;;;;0.00;0.00;;;;;;;4.52;70.19;101497.09;6307766;22;20010;-74
2023/03/03 05:33:04;;;;;;;0.00;0.00;;;;;;;4.43;69.85;101488.28;6282978;22;19999;-75
2023/03/03 05:35:30;;;;;;;0.00;0.00;;;;;;;4.41;70.53;101490.38;6280522;22;20417;-76
2023/03/03 05:37:57;;;;;;;0.00;0.00;;;;;;;4.44;70.11;101489.97;6304662;22;20019;-74
2023/03/03 05:40:23;;;;;;;0.00;0.00;;;;;;;4.52;70.36;101499.78;6306796;22;20007;-75
2023/03/03 05:42:49;;;;;;;0.00;0.00;;;;;;;4.44;70.45;101484.53;6284060;22;20018;-74
2023/03/03 05:45:15;;;;;;;0.08;0.08;;;;;;;4.41;70.17;101489.50;6283334;22;20011;-75
2023/03/03 05:47:40;;;;;;;0.00;0.00;;;;;;;4.40;70.07;101490.56;6279229;22;20007;-75
2023/03/03 05:50:06;;;;;;;0.00;0.00;;;;;;;4.37;69.97;101487.19;6281649;22;20007;-74
2023/03/03 05:52:31;;;;;;;0.00;0.00;;;;;;;4.37;70.33;101489.91;6305726;22;20011;-74
2023/03/03 05:54:57;;;;;;;0.00;0.00;;;;;;;4.40;70.58;101482.44;6283502;22;20334;-74
2023/03/03 05:57:26;;;;;;;0.00;0.00;;;;;;;4.46;70.57;101481.63;6280716;22;20006;-74
2023/03/03 05:59:52;;;;;;;0.00;0.00;;;;;;;4.56;70.31;101490.25;6256610;22;20003;-75
2023/03/03 06:02:17;;;;;;;0.00;0.00;;;;;;;4.62;69.39;101497.56;6283172;22;20068;-74
2023/03/03 06:04:42;;;;;;;0.00;0.00;;;;;;;4.71;69.35;101496.34;6307360;22;20418;-74
2023/03/03 06:07:08;;;;;;;0.00;0.00;;;;;;;4.67;68.76;101495.09;6259265;22;20042;-76
2023/03/03 06:09:33;;;;;;;0.00;0.00;;;;;;;4.68;68.58;101501.34;6315914;22;20007;-78
2023/03/03 06:11:59;;;;;;;0.00;0.00;;;;;;;4.60;69.20;101499.66;6311524;22;20772;-76
2023/03/03 06:14:24;;;;;;;0.00;0.00;;;;;;;4.57;69.10;101507.31;6261470;22;20013;-75
2023/03/03 06:16:50;;;;;;;0.10;0.10;;;;;;;4.56;68.98;101498.38;6307787;22;20014;-74
2023/03/03 06:19:15;;;;;;;0.00;0.00;;;;;;;4.55;68.87;101507.50;6284802;22;20027;-75
2023/03/03 06:21:41;;;;;;;0.00;0.00;;;;;;;4.51;68.95;101514.38;6309474;22;20003;-75
2023/03/03 06:24:10;;;;;;;0.00;0.00;;;;;;;4.39;68.96;101502.44;6310253;22;19998;-75
2023/03/03 06:26:36;;;;;;;0.00;0.00;;;;;;;4.25;69.64;101486.09;6312726;22;20018;-75
2023/03/03 06:29:01;;;;;;;0.00;0.00;;;;;;;4.34;69.44;101506.56;6306145;22;20014;-74
2023/03/03 06:31:27;;;;;;;0.00;0.00;;;;;;;4.31;69.73;101509.66;6308818;22;20356;-75
2023/03/03 06:33:53;;;;;;;0.00;0.00;;;;;;;4.33;69.28;101509.47;6279513;22;20118;-76
2023/03/03 06:36:26;;;;;;;0.00;0.00;;;;;;;4.33;69.57;101504.88;6283425;22;20019;-75
2023/03/03 06:38:54;;;;;;;0.00;0.00;;;;;;;4.35;69.90;101486.56;6279119;22;20657;-76
2023/03/03 06:41:19;;;;;;;0.00;0.00;;;;;;;4.55;69.12;101512.94;6309514;22;19988;-74
2023/03/03 06:43:48;;;;;;;0.00;0.00;;;;;;;4.55;68.74;101502.94;6282210;22;20010;-75
2023/03/03 06:46:13;;;;;;;0.00;0.00;;;;;;;4.61;68.22;101512.13;6282157;22;20090;-75
2023/03/03 06:48:39;;;;;;;0.00;0.00;;;;;;;4.57;68.15;101510.88;6307853;22;20003;-74
2023/03/03 06:51:21;;;;;;;0.00;0.00;;;;;;;4.61;68.34;101522.16;6301427;22;20334;-73
2023/03/03 06:53:51;;;;;;;0.10;0.10;;;;;;;4.39;68.52;101497.00;6309613;22;20030;-77
2023/03/03 06:56:21;;;;;;;0.00;0.00;;;;;;;4.44;68.41;101529.72;6264992;22;20035;-76
2023/03/03 06:58:48;;;;;;;0.00;0.00;;;;;;;4.27;69.07;101510.25;6229506;22;20093;-77
2023/03/03 07:01:43;;;;;;;0.00;0.00;;;;;;;4.31;69.19;101531.34;6253279;22;20371;-80
2023/03/03 07:04:25;;;;;;;0.00;0.00;;;;;;;4.27;69.17;101526.50;6241620;22;20016;-74
2023/03/03 07:06:50;;;;;;;0.00;0.00;;;;;;;4.23;69.86;101509.81;6250897;22;20007;-78
2023/03/03 07:09:35;;;;;;;0.00;0.00;;;;;;;4.25;69.95;101523.16;6255077;22;20007;-80
2023/03/03 07:12:08;;;;;;;;;;;;;;;4.30;69.32;101537.78;6277911;22;20091;-79
2023/03/03 07:14:41;;;;;;;0.00;0.00;;;;;;;4.26;69.51;101520.25;6280133;22;19953;-79
2023/03/03 07:17:14;;;;;;;0.00;0.00;;;;;;;4.36;69.14;101534.25;6273713;22;19999;-79
2023/03/03 07:19:40;;;;;;;0.00;0.00;;;;;;;4.30;69.90;101524.22;6252278;22;20010;-79
2023/03/03 07:22:13;;;;;;;0.10;0.10;;;;;;;4.34;70.09;101530.94;6223068;22;20018;-80
2023/03/03 07:24:39;;;;;;;0.00;0.00;;;;;;;4.46;69.47;101546.66;6253160;22;20015;-80
2023/03/03 07:27:04;;;;;;;0.00;0.00;;;;;;;4.52;69.18;101548.56;6252823;22;20273;-80
2023/03/03 07:29:30;;;;;;;0.00;0.00;;;;;;;4.57;69.67;101547.94;6256043;22;20008;-81
2023/03/03 07:31:57;;;;;;;0.00;0.00;;;;;;;4.57;69.46;101543.41;6253101;22;20028;-81
2023/03/03 07:34:30;;;;;;;0.08;0.08;;;;;;;4.61;69.25;101555.47;6280137;22;20089;-79
2023/03/03 07:37:04;;;;;;;0.00;0.00;;;;;;;4.66;68.89;101555.72;6264683;22;20012;-80
2023/03/03 07:39:37;;;;;;;0.00;0.00;;;;;;;4.62;69.74;101546.31;6283056;22;20016;-79
2023/03/03 07:42:15;;;;;;;0.10;0.10;;;;;;;4.76;68.65;101566.22;6281545;22;20370;-79
2023/03/03 07:44:40;;;;;;;0.00;0.00;;;;;;;4.76;68.66;101558.09;6254075;22;19991;-78
2023/03/03 07:47:26;;;;;;;0.00;0.00;;;;;;;4.88;68.77;101571.91;6228844;22;20008;-80
2023/03/03 07:49:56;;;;;;;0.00;0.00;;;;;;;4.87;68.26;101564.81;6279342;22;20015;-81
2023/03/03 07:52:38;;;;;;;0.00;0.00;;;;;;;4.88;68.10;101561.91;6252130;22;20019;-81
2023/03/03 07:55:24;;;;;;;0.00;0.00;;;;;;;5.01;69.20;101577.41;6260157;22;20019;-78
2023/03/03 07:57:56;;;;;;;0.00;0.00;;;;;;;5.05;68.09;101567.84;6256372;22;20089;-80
2023/03/03 08:00:27;;;;;;;0.10;0.10;;;;;;;5.15;68.52;101580.19;6287694;22;19999;-80
2023/03/03 08:03:01;;;;;;;0.00;0.00;;;;;;;5.19;68.23;101578.75;6287661;22;20015;-80
2023/03/03 08:05:42;;;;;;;0.00;0.00;;;;;;;5.12;68.05;101573.28;6287774;22;20027;-79
2023/03/03 08:08:42;;;;;;;0.10;0.10;;;;;;;5.33;68.07;101585.91;6287166;22;20244;-80
2023/03/03 08:11:08;;;;;;;0.00;0.00;;;;;;;5.32;67.26;101576.06;6297988;22;20012;-78
2023/03/03 08:13:34;;;;;;;0.00;0.00;;;;;;;5.38;67.45;101577.16;6290825;22;20012;-78
2023/03/03 08:16:08;;;;;;;0.00;0.00;;;;;;;5.49;66.82;101590.13;6288491;22;20057;-78
2023/03/03 08:18:47;;;;;;;0.10;0.10;;;;;;;5.60;66.34;101600.38;6282254;22;20022;-80
2023/03/03 08:21:15;;;;;;;0.00;0.00;;;;;;;5.65;66.55;101588.06;6287970;22;19995;-81
2023/03/03 08:23:41;;;;;;;0.00;0.00;;;;;;;5.72;65.46;101597.94;6279479;22;20036;-77
2023/03/03 08:26:19;;;;;;;0.10;0.10;;;;;;;5.69;65.29;101576.59;6309812;22;20003;-81
2023/03/03 08:28:45;;;;;;;0.00;0.00;;;;;;;6.00;64.30;101613.25;6254939;22;20003;-78
2023/03/03 08:31:11;;;;;;;0.00;0.00;;;;;;;6.13;64.50;101611.59;6287624;22;20041;-80
2023/03/03 08:33:39;;;;;;;0.00;0.00;;;;;;;6.14;64.53;101596.97;6264137;22;20060;-81
2023/03/03 08:36:06;;;;;;;0.00;0.00;;;;;;;6.34;62.97;101619.53;6290789;22;20014;-82
2023/03/03 08:38:39;;;;;;;0.08;0.08;;;;;;;6.41;62.88;101620.38;6287311;22;20003;-80
2023/03/03 08:41:05;;;;;;;0.00;0.00;;;;;;;6.43;62.81;101607.41;6279751;22;19987;-80
2023/03/03 08:43:31;;;;;;;0.00;0.00;;;;;;;6.44;62.58;101590.06;6286703;22;20003;-82
2023/03/03 08:46:05;;;;;;;0.00;0.00;;;;;;;6.63;61.93;101606.59;6283075;22;20003;-80
2023/03/03 08:48:33;;;;;;;0.00;0.00;;;;;;;6.70;61.43;101603.84;6285894;22;19999;-80
2023/03/03 08:50:58;;;;;;;0.00;0.00;;;;;;;6.80;61.22;101613.25;6255423;22;20013;-80
2023/03/03 08:53:24;;;;;;;0.00;0.00;;;;;;;6.92;60.76;101605.28;6284382;22;20015;-79
2023/03/03 08:55:50;;;;;;;0.00;0.00;;;;;;;7.04;60.46;101610.91;6292877;22;20069;-78
2023/03/03 08:58:17;;;;;;;0.10;0.10;;;;;;;7.22;60.03;101621.09;6310638;22;20502;-78
2023/03/03 09:01:14;;;;;;;0.10;0.10;;;;;;;7.48;59.50;101624.78;6310771;22;20444;-79
2023/03/03 09:04:11;;;;;;;0.00;0.00;;;;;;;7.59;58.72;101582.41;6275965;22;19995;-81
2023/03/03 09:06:44;;;;;;;0.00;0.00;;;;;;;7.80;57.02;101612.03;6306996;22;20018;-80
2023/03/03 09:09:12;;;;;;;0.00;0.00;;;;;;;7.88;57.09;101605.47;6308691;22;20007;-81
2023/03/03 09:11:42;;;;;;;0.00;0.00;;;;;;;8.07;56.96;101600.97;6309625;22;20072;-80
2023/03/03 09:14:13;;;;;;;0.00;0.00;;;;;;;8.41;56.55;101627.97;6310735;22;20003;-79
2023/03/03 09:16:50;;;;;;;0.00;0.00;;;;;;;8.33;55.16;101607.28;6307895;22;20333;-81
2023/03/03 09:19:25;;;;;;;0.00;0.00;;;;;;;8.39;55.62;101629.00;6312612;22;20021;-79
2023/03/03 09:21:53;;;;;;;0.00;0.00;;;;;;;8.27;54.57;101621.78;6306342;22;20440;-80
2023/03/03 09:24:28;;;;;;;0.00;0.00;;;;;;;8.39;54.20;101633.63;6309755;22;20007;-78
2023/03/03 09:26:53;;;;;;;0.00;0.00;;;;;;;8.39;54.54;101625.44;6304920;22;20081;-78
2023/03/03 09:29:28;;;;;;;0.00;0.00;;;;;;;8.63;54.52;101632.00;6309854;22;20011;-78
2023/03/03 09:31:54;;;;;;;;;;;;;;;8.90;54.26;101631.75;6307434;22;20002;-79
2023/03/03 09:34:36;;;;;;;0.00;0.00;;;;;;;9.00;53.79;101625.78;6309125;22;19926;-79
2023/03/03 09:37:16;;;;;;;0.00;0.00;;;;;;;9.04;53.08;101632.47;6305602;22;20072;-78
2023/03/03 09:39:42;;;;;;;0.00;0.00;;;;;;;8.97;52.87;101632.50;6309685;22;19999;-77
2023/03/03 09:42:50;;;;;;;0.00;0.00;;;;;;;8.96;52.65;101621.81;6281185;22;19999;-79
2023/03/03 09:45:52;;;;;;;0.00;0.00;;;;;;;9.17;52.57;101637.75;6306978;22;20027;-79
2023/03/03 09:48:31;;;;;;;0.00;0.00;;;;;;;9.25;52.26;101634.72;6289179;22;20009;-78
2023/03/03 09:51:18;;;;;;;0.00;0.00;;;;;;;9.38;51.44;101632.91;6306883;22;20003;-78
2023/03/03 09:54:11;;;;;;;0.00;0.00;;;;;;;9.61;51.66;101634.94;6306198;22;20006;-76
2023/03/03 09:56:53;;;;;;;0.00;0.00;;;;;;;9.74;50.28;101626.56;6308373;22;20015;-80
2023/03/03 09:59:35;;;;;;;0.00;0.00;;;;;;;9.98;49.66;101628.56;6313864;22;20017;-87
2023/03/03 10:02:23;;;;;;;0.00;0.00;;;;;;;10.50;48.98;101637.03;6312662;22;19999;-84
2023/03/03 10:05:25;;;;;;;0.00;0.00;;;;;;;10.79;48.01;101642.63;6310741;22;20011;-81
2023/03/03 10:08:18;;;;;;;0.00;0.00;;;;;;;10.64;47.85;101646.69;6307961;22;20006;-80
2023/03/03 10:10:47;;;;;;;0.00;0.00;;;;;;;10.56;47.67;101638.81;6308110;22;19996;-77
2023/03/03 10:13:42;;;;;;;0.00;0.00;;;;;;;10.90;48.40;101644.53;6305672;22;20035;-79
2023/03/03 10:16:31;;;;;;;0.00;0.00;;;;;;;11.18;47.51;101643.81;6309269;22;20006;-79
2023/03/03 10:19:29;;;;;;;0.00;0.00;;;;;;;11.39;46.57;101637.91;6306999;22;20037;-78
2023/03/03 10:21:54;;;;;;;0.00;0.00;;;;;;;11.65;46.99;101645.59;6305107;22;20003;-78
2023/03/03 10:24:39;;;;;;;;;;;;;;;;;;;;;
2023/03/03 10:27:26;;;;;;;0.00;0.00;;;;;;;11.50;46.07;101631.56;6307314;22;20773;-78
2023/03/03 10:29:55;;;;;;;0.00;0.00;;;;;;;11.31;46.37;101650.91;6312236;22;20029;-78
2023/03/03 10:32:39;;;;;;;0.00;0.00;;;;;;;10.98;46.74;101646.91;6306880;22;20004;-76
2023/03/03 10:35:29;;;;;;;0.00;0.00;;;;;;;10.68;46.95;101643.47;6309044;22;20003;-79
2023/03/03 10:38:10;;;;;;;0.00;0.00;;;;;;;10.70;47.30;101657.72;6309683;22;20010;-79
2023/03/03 10:41:06;;;;;;;0.00;0.00;;;;;;;10.45;47.48;101653.28;6305138;22;19999;-78
2023/03/03 10:44:09;;;;;;;0.00;0.00;;;;;;;10.30;47.94;101651.81;6314722;22;20013;-79
2023/03/03 10:46:54;;;;;;;0.00;0.00;;;;;;;10.27;48.69;101660.47;6319525;22;19996;-78
2023/03/03 10:49:44;;;;;;;0.00;0.00;;;;;;;10.22;48.19;101654.88;6309061;22;20325;-78
2023/03/03 10:52:32;;;;;;;0.00;0.00;;;;;;;10.26;48.28;101667.00;6312744;22;20021;-81
2023/03/03 10:55:07;;;;;;;;;;;;;;;;;;;;;
2023/03/03 10:57:51;;;;;;;0.00;0.00;;;;;;;10.19;48.30;101665.44;6308857;22;20023;-80
2023/03/03 11:00:47;;;;;;;0.00;0.00;;;;;;;10.02;48.02;101659.81;6308980;22;20003;-79
2023/03/03 11:03:31;;;;;;;0.00;0.00;;;;;;;9.92;47.85;101666.66;6306881;22;20010;-79
2023/03/03 11:06:03;;;;;;;0.05;0.05;;;;;;;9.68;48.56;101668.47;6310892;22;20007;-78
2023/03/03 11:08:47;;;;;;;0.00;0.00;;;;;;;9.40;48.73;101647.16;6309069;22;20003;-80
2023/03/03 11:11:27;;;;;;;0.00;0.00;;;;;;;9.64;48.68;101674.59;6313435;22;20329;-82
2023/03/03 11:14:23;;;;;;;;;;;;;;;;;;;;;
2023/03/03 11:17:15;;;;;;;0.00;0.00;;;;;;;9.50;48.96;101663.81;6310699;22;20014;-79
2023/03/03 11:20:12;;;;;;;0.00;0.00;;;;;;;9.78;48.69;101676.09;6317994;22;20003;-81
2023/03/03 11:22:53;;;;;;;0.00;0.00;;;;;;;10.20;48.42;101670.66;6271335;22;20022;-79
2023/03/03 11:25:28;;;;;;;0.00;0.00;;;;;;;10.47;47.45;101678.53;6312840;22;19999;-80
2023/03/03 11:28:05;;;;;;;0.10;0.10;;;;;;;10.51;46.70;101679.69;6315163;22;19999;-82
2023/03/03 11:30:44;;;;;;;0.00;0.00;;;;;;;10.41;46.32;101668.50;6309635;22;20098;-82
2023/03/03 11:33:42;;;;;;;0.00;0.00;;;;;;;10.54;46.58;101684.72;6314719;22;20081;-81
2023/03/03 11:36:20;;;;;;;0.00;0.00;;;;;;;10.77;46.31;101683.06;6301336;22;20003;-81
2023/03/03 11:39:00;;;;;;;0.00;0.00;;;;;;;11.08;46.23;101690.13;6313182;22;19998;-79
2023/03/03 11:42:15;;;;;;;0.00;0.00;;;;;;;11.22;44.96;101693.44;6310045;22;20019;-80
2023/03/03 11:45:04;;;;;;;0.00;0.00;;;;;;;11.21;44.92;101678.06;6222018;23;20398;-78
2023/03/03 11:48:16;;;;;;;0.00;0.00;;;;;;;11.31;44.83;101670.06;6308255;22;20897;-78
2023/03/03 11:51:05;;;;;;;0.00;0.00;;;;;;;11.64;44.81;101675.97;6262275;22;20444;-79
2023/03/03 11:53:43;;;;;;;0.00;0.00;;;;;;;11.88;44.08;101687.69;6296411;22;20011;-78
2023/03/03 11:56:57;;;;;;;0.00;0.00;;;;;;;11.58;43.44;101653.13;6306050;22;20323;-81
2023/03/03 12:00:00;;;;;;;0.00;0.00;;;;;;;11.74;43.21;101691.78;6244819;23;20015;-78
2023/03/03 12:02:45;;;;;;;0.00;0.00;;;;;;;11.66;44.12;101674.63;6307356;22;20003;-78
2023/03/03 12:05:31;;;;;;;0.00;0.00;;;;;;;11.81;44.04;101684.25;6291514;22;20090;-76